MV Boron Navigator — H9DA — position and weather

sailwx.info

Track history (hours):
 
Tides and Currents Weather Stations Pressure Air Temp Water Temp Dewpoint Dewpoint Depression Visibility Wind Speed Wind Dir Waves Ship Positions

MV Boron Navigator

Last reported at 2018-Apr-21 00:22 UTC. Time now 2018-Apr-21 11:42 UTC.
Position N 32°53' E 127°15'.

Length 189.8 m; beam 32.3 m.

Type: Cargo ship. MMSI: 357109000.

Date/timePositionNaut miles runAvg speedWind from/ knotsBaromVisibWave heightAir tempDewpointWater temp
2018-Apr-21 00:22N 32°53' E 127°15'917.4
2018-Apr-20 23:52N 32°57' E 127°24'617.1
2018-Apr-20 23:29N 33°00' E 127°31'2317.3
2018-Apr-20 22:10N 33°10' E 127°55'417.5
2018-Apr-20 21:55N 33°13' E 127°60'817.6
2018-Apr-20 21:27N 33°17' E 128°08'817.1
2018-Apr-20 21:00N 33°21' E 128°16'917.4
2018-Apr-20 20:30N 33°25' E 128°25'917.5
2018-Apr-20 20:00N 33°29' E 128°34'917.2
2018-Apr-20 19:30N 33°33' E 128°44'917.7
2018-Apr-20 19:00N 33°37' E 128°53'917.2
2018-Apr-20 18:29N 33°41' E 129°02'817.3
2018-Apr-20 18:00N 33°45' E 129°11'917.5
2018-Apr-20 17:30N 33°49' E 129°21'917.4
2018-Apr-20 17:00N 33°53' E 129°30'917.3
2018-Apr-20 16:30N 33°56' E 129°40'917.9
2018-Apr-20 16:00N 33°57' E 129°50'918.0
2018-Apr-20 15:30N 33°59' E 130°01'918.3
2018-Apr-20 15:00N 34°00' E 130°12'918.5
2018-Apr-20 14:30N 34°01' E 130°23'918.5
2018-Apr-20 14:00N 34°02' E 130°34'918.1
2018-Apr-20 13:30N 34°03' E 130°45'714.4
2018-Apr-20 13:00N 33°60' E 130°53'4 8.5
2018-Apr-20 12:30N 33°55' E 130°53'3 7.0
2018-Apr-20 12:01N 33°57' E 130°57'2 3.7
2018-Apr-20 11:31N 33°58' E 130°59'0 0.5
2018-Apr-20 11:00N 33°58' E 130°59'0 0.0
2018-Apr-20 10:30N 33°58' E 130°59'0 0.0
2018-Apr-20 10:00N 33°58' E 130°59'0 0.0
2018-Apr-20 09:30N 33°58' E 130°59'0 0.0
2018-Apr-20 09:00N 33°58' E 130°59'0 0.0
2018-Apr-20 08:30N 33°58' E 130°59'0 0.0
2018-Apr-20 08:00N 33°58' E 130°59'0 0.0
2018-Apr-20 07:30N 33°58' E 130°59'0 0.0
2018-Apr-20 07:00N 33°58' E 130°59'0 0.0
2018-Apr-20 06:30N 33°58' E 130°59'0 0.0
2018-Apr-20 06:00N 33°58' E 130°59'0 0.0
2018-Apr-20 05:30N 33°58' E 130°59'0 0.0
2018-Apr-20 05:00N 33°58' E 130°59'0 0.6
2018-Apr-20 04:30N 33°58' E 130°59'4 8.0
2018-Apr-20 04:00N 33°56' E 131°03'2 3.2
2018-Apr-20 03:30N 33°55' E 131°02'0 0.1
2018-Apr-20 03:00N 33°55' E 131°02'0 0.0
2018-Apr-20 02:30N 33°55' E 131°02'0 0.0
2018-Apr-20 02:00N 33°55' E 131°02'0 0.0
2018-Apr-20 01:30N 33°55' E 131°02'0 0.0
2018-Apr-20 01:00N 33°55' E 131°02'0 0.0
2018-Apr-20 00:30N 33°55' E 131°02'0 0.0
2018-Apr-20 00:00N 33°55' E 131°02'0 0.1
2018-Apr-19 23:30N 33°55' E 131°02'4 7.0
2018-Apr-19 23:00N 33°54' E 131°06'714.6
2018-Apr-19 22:30N 33°51' E 131°14'917.1
2018-Apr-19 22:00N 33°50' E 131°25'917.0
2018-Apr-19 21:30N 33°48' E 131°35'816.4
2018-Apr-19 21:01N 33°45' E 131°44'816.6
2018-Apr-19 20:30N 33°38' E 131°49'816.3
2018-Apr-19 20:01N 33°30' E 131°53'816.3
2018-Apr-19 19:30N 33°23' E 131°57'815.0
2018-Apr-19 19:00N 33°16' E 132°01'7113.0
2018-Apr-19 13:33N 32°43' E 133°15'116.2
2018-Apr-19 13:30N 32°43' E 133°16'6611.9
2018-Apr-19 07:57N 32°60' E 134°33'1 1.0
2018-Apr-19 07:24N 32°59' E 134°32'21315.1
2018-Apr-18 17:20N 34°18' E 138°29'816.7
2018-Apr-18 16:51N 34°21' E 138°38'616.5
2018-Apr-18 16:30N 34°23' E 138°45'816.3
2018-Apr-18 15:59N 34°27' E 138°54'815.9
2018-Apr-18 15:30N 34°30' E 139°02'815.8
2018-Apr-18 15:00N 34°34' E 139°11'815.4
2018-Apr-18 14:30N 34°37' E 139°20'916.4
2018-Apr-18 13:59N 34°39' E 139°30'816.3
2018-Apr-18 13:30N 34°46' E 139°34'916.9
2018-Apr-18 13:00N 34°54' E 139°38'917.2
2018-Apr-18 12:30N 35°02' E 139°42'816.8
2018-Apr-18 12:00N 35°10' E 139°45'611.2
2018-Apr-18 11:30N 35°15' E 139°46'612.9
2018-Apr-18 11:01N 35°21' E 139°42'612.8
2018-Apr-18 10:30N 35°26' E 139°46'714.4
2018-Apr-18 10:01N 35°32' E 139°51'510.2
2018-Apr-18 09:30N 35°37' E 139°49'2 3.2
2018-Apr-18 09:00N 35°37' E 139°47'0 0.1
2018-Apr-18 08:15N 35°37' E 139°47'0 0.0
2018-Apr-18 07:03N 35°37' E 139°47'0 0.0
2018-Apr-18 04:15N 35°37' E 139°47'0 0.0
2018-Apr-18 03:57N 35°37' E 139°47'0 0.0
2018-Apr-18 03:27N 35°37' E 139°47'0 0.0
2018-Apr-18 02:27N 35°37' E 139°47'0 0.0
2018-Apr-18 01:51N 35°37' E 139°47'0 0.0
2018-Apr-18 01:09N 35°37' E 139°47'0 0.0
2018-Apr-18 00:39N 35°37' E 139°47'0 0.0
2018-Apr-18 00:30N 35°37' E 139°47'0 0.0
2018-Apr-17 23:57N 35°37' E 139°47'0 0.0
2018-Apr-17 22:39N 35°37' E 139°47'0 0.0
2018-Apr-17 21:42N 35°37' E 139°47'0 0.0
2018-Apr-17 21:21N 35°37' E 139°47'0 0.0
2018-Apr-17 21:00N 35°37' E 139°47'0 0.0
2018-Apr-17 20:30N 35°37' E 139°47'0 0.0
2018-Apr-17 20:00N 35°37' E 139°47'0 0.0
2018-Apr-17 19:12N 35°37' E 139°47'0 0.0
2018-Apr-17 15:15N 35°37' E 139°47'0 0.0
2018-Apr-17 14:51N 35°37' E 139°47'0 0.0
2018-Apr-17 14:15N 35°37' E 139°47'0 0.0
2018-Apr-17 13:57N 35°37' E 139°47'0 0.0
2018-Apr-17 13:21N 35°37' E 139°47'0 0.0
2018-Apr-17 12:57N 35°37' E 139°47'0 0.0
2018-Apr-17 12:27N 35°37' E 139°47'0 0.0
2018-Apr-17 11:57N 35°37' E 139°47'0 0.0
2018-Apr-17 09:15N 35°37' E 139°47'0 0.0
2018-Apr-17 08:51N 35°37' E 139°47'0 0.0
2018-Apr-17 06:21N 35°37' E 139°47'0 0.0
2018-Apr-17 05:57N 35°37' E 139°47'0 0.0
2018-Apr-17 05:27N 35°37' E 139°47'0 0.0
2018-Apr-17 02:51N 35°37' E 139°47'0 0.0
2018-Apr-17 02:27N 35°37' E 139°47'0 0.0
2018-Apr-16 22:57N 35°37' E 139°47'0 0.0
2018-Apr-16 18:15N 35°37' E 139°47'0 0.0
2018-Apr-16 15:03N 35°37' E 139°47'0 0.0
2018-Apr-16 08:48N 35°37' E 139°47'0 0.0
2018-Apr-16 08:21N 35°37' E 139°47'0 0.0
2018-Apr-16 07:51N 35°37' E 139°47'0 0.0
2018-Apr-15 19:15N 35°37' E 139°47'0 0.0
2018-Apr-15 18:51N 35°37' E 139°47'0 0.0
2018-Apr-15 17:45N 35°37' E 139°47'0 0.0
2018-Apr-15 17:27N 35°37' E 139°47'0 0.0
2018-Apr-15 16:15N 35°37' E 139°47'0 0.0
2018-Apr-15 13:51N 35°37' E 139°47'0 0.0
2018-Apr-15 13:27N 35°37' E 139°47'0 0.0
2018-Apr-15 12:57N 35°37' E 139°47'0 0.0
2018-Apr-15 11:45N 35°37' E 139°47'0 0.0
2018-Apr-15 11:21N 35°37' E 139°47'0 0.0
2018-Apr-15 10:57N 35°37' E 139°47'0 0.0
2018-Apr-15 06:18N 35°37' E 139°47'0 0.0
2018-Apr-15 05:45N 35°37' E 139°47'0 0.0
2018-Apr-15 05:30N 35°37' E 139°47'0 0.0
2018-Apr-15 03:21N 35°37' E 139°47'0 0.0
2018-Apr-15 02:51N 35°37' E 139°47'0 0.0
2018-Apr-15 02:30N 35°37' E 139°47'0 0.0
2018-Apr-15 01:12N 35°37' E 139°47'0 0.0
2018-Apr-15 00:39N 35°37' E 139°47'0 0.0
2018-Apr-15 00:27N 35°37' E 139°47'0 0.0
2018-Apr-15 00:00N 35°37' E 139°47'0 0.0
2018-Apr-14 23:09N 35°37' E 139°47'0 0.0
2018-Apr-14 22:45N 35°37' E 139°47'0 0.0
2018-Apr-14 22:24N 35°37' E 139°47'0 0.0
2018-Apr-14 21:54N 35°37' E 139°47'0 0.0
2018-Apr-14 21:24N 35°37' E 139°47'0 0.0
2018-Apr-14 20:30N 35°37' E 139°47'0 0.0
2018-Apr-14 19:57N 35°37' E 139°47'0 0.0
2018-Apr-14 13:39N 35°37' E 139°47'0 0.0
2018-Apr-14 11:57N 35°37' E 139°47'0 0.0
2018-Apr-14 11:27N 35°37' E 139°47'0 0.0
2018-Apr-14 11:00N 35°37' E 139°47'0 0.0
2018-Apr-14 07:21N 35°37' E 139°47'0 0.0
2018-Apr-14 06:51N 35°37' E 139°47'0 0.0
2018-Apr-14 06:30N 35°37' E 139°47'0 0.0
2018-Apr-14 01:57N 35°37' E 139°47'0 0.0
2018-Apr-14 01:09N 35°37' E 139°47'0 0.0
2018-Apr-14 00:54N 35°37' E 139°47'0 0.0
2018-Apr-14 00:24N 35°37' E 139°47'0 0.0
2018-Apr-13 23:21N 35°37' E 139°47'0 0.0
2018-Apr-13 22:57N 35°37' E 139°47'0 0.2
2018-Apr-13 22:30N 35°37' E 139°47'1 2.2
2018-Apr-13 22:00N 35°37' E 139°48'4 7.1
2018-Apr-13 21:30N 35°34' E 139°51'0 0.4
2018-Apr-13 21:00N 35°34' E 139°51'0 0.0
2018-Apr-13 20:30N 35°34' E 139°51'0 0.0
2018-Apr-13 20:00N 35°34' E 139°51'0 0.0
2018-Apr-13 19:30N 35°34' E 139°51'0 0.0
2018-Apr-13 19:00N 35°34' E 139°51'0 0.0
2018-Apr-13 18:27N 35°34' E 139°51'0 0.0
2018-Apr-13 18:00N 35°34' E 139°51'0 0.0
2018-Apr-13 17:30N 35°34' E 139°51'0 0.1
2018-Apr-13 17:00N 35°34' E 139°51'0 0.1
2018-Apr-13 16:30N 35°34' E 139°51'0 0.0
2018-Apr-13 16:00N 35°34' E 139°51'0 0.0
2018-Apr-13 15:30N 35°34' E 139°51'0 0.0
2018-Apr-13 15:00N 35°34' E 139°51'0 0.1
2018-Apr-13 14:30N 35°34' E 139°51'0 0.1
2018-Apr-13 14:00N 35°34' E 139°51'0 0.0
2018-Apr-13 13:30N 35°34' E 139°51'0 0.0
2018-Apr-13 13:00N 35°34' E 139°51'0 0.0
2018-Apr-13 12:30N 35°34' E 139°51'0 0.0
2018-Apr-13 12:00N 35°34' E 139°51'0 0.0
2018-Apr-13 11:30N 35°34' E 139°51'0 0.1
2018-Apr-13 10:57N 35°34' E 139°51'0 0.1
2018-Apr-13 10:30N 35°34' E 139°51'0 0.0
2018-Apr-13 10:00N 35°34' E 139°51'0 0.1
2018-Apr-13 09:30N 35°34' E 139°51'2 3.6
2018-Apr-13 09:00N 35°32' E 139°52'4 8.9
2018-Apr-13 08:31N 35°28' E 139°51'713.1
2018-Apr-13 08:00N 35°23' E 139°46'511.1
2018-Apr-13 07:31N 35°17' E 139°45'611.8
2018-Apr-13 07:00N 35°11' E 139°47'510.6
2018-Apr-13 06:30N 35°06' E 139°45'714.2
2018-Apr-13 06:00N 34°60' E 139°41'816.5
2018-Apr-13 05:30N 34°53' E 139°37'816.0
2018-Apr-13 05:00N 34°45' E 139°33'815.2
2018-Apr-13 04:30N 34°38' E 139°29'917.4
2018-Apr-13 04:01N 34°36' E 139°19'917.3
2018-Apr-13 03:31N 34°32' E 139°09'917.7
2018-Apr-13 03:00N 34°29' E 138°59'1018.5
2018-Apr-13 02:29N 34°25' E 138°49'918.6
2018-Apr-13 01:59N 34°21' E 138°38'3318.7
2018-Apr-13 00:13N 34°08' E 138°02'7417.6
2018-Apr-12 20:02N 33°38' E 136°41'117.2
2018-Apr-12 19:59N 33°38' E 136°40'6418.2
2018-Apr-12 16:28N 33°14' E 135°28'11419.4
2018-Apr-12 10:35N 32°44' E 133°18'219.7
2018-Apr-12 10:30N 32°43' E 133°16'7216.3
2018-Apr-12 06:05N 33°17' E 132°00'219.1
2018-Apr-12 06:00N 33°19' E 131°59'1418.5
2018-Apr-12 05:15N 33°31' E 131°51'519.4
2018-Apr-12 05:00N 33°35' E 131°49'919.1
2018-Apr-12 04:30N 33°44' E 131°44'917.7
2018-Apr-12 04:00N 33°47' E 131°34'918.8
2018-Apr-12 03:30N 33°49' E 131°23'918.8
2018-Apr-12 03:00N 33°51' E 131°12'816.3
2018-Apr-12 02:31N 33°56' E 131°04'4 8.5
2018-Apr-12 02:00N 33°58' E 130°59'0 0.2
2018-Apr-12 01:30N 33°58' E 130°59'0 0.0
2018-Apr-12 01:00N 33°58' E 130°59'0 0.0
2018-Apr-12 00:30N 33°58' E 130°59'0 0.0
2018-Apr-12 00:00N 33°58' E 130°59'0 0.0
2018-Apr-11 23:30N 33°58' E 130°59'0 0.0
2018-Apr-11 23:00N 33°58' E 130°59'0 0.0
2018-Apr-11 22:30N 33°58' E 130°59'0 0.0
2018-Apr-11 22:00N 33°58' E 130°59'0 0.0
2018-Apr-11 21:30N 33°58' E 130°59'0 0.0
2018-Apr-11 21:00N 33°58' E 130°59'0 0.0
2018-Apr-11 20:30N 33°58' E 130°59'0 0.0
2018-Apr-11 20:00N 33°58' E 130°59'0 0.0
2018-Apr-11 19:30N 33°58' E 130°59'0 0.0
2018-Apr-11 19:00N 33°58' E 130°59'0 0.0
2018-Apr-11 18:30N 33°58' E 130°59'0 0.0
2018-Apr-11 18:00N 33°58' E 130°59'0 0.0
2018-Apr-11 17:30N 33°58' E 130°59'0 0.0
2018-Apr-11 17:00N 33°58' E 130°59'0 0.0
2018-Apr-11 16:30N 33°58' E 130°59'0 0.0
2018-Apr-11 16:00N 33°58' E 130°59'0 0.0
2018-Apr-11 15:30N 33°58' E 130°59'0 0.0
2018-Apr-11 15:00N 33°58' E 130°59'0 0.0
2018-Apr-11 14:30N 33°58' E 130°59'0 0.0
2018-Apr-11 14:00N 33°58' E 130°59'0 0.0
2018-Apr-11 13:30N 33°58' E 130°59'0 0.0
2018-Apr-11 13:00N 33°58' E 130°59'0 0.0
2018-Apr-11 12:30N 33°58' E 130°59'0 0.0
2018-Apr-11 12:00N 33°58' E 130°59'0 0.0
2018-Apr-11 11:30N 33°58' E 130°59'0 0.0
2018-Apr-11 11:00N 33°58' E 130°59'0 0.0
2018-Apr-11 10:30N 33°58' E 130°59'0 0.0
2018-Apr-11 10:00N 33°58' E 130°59'0 0.0
2018-Apr-11 09:30N 33°58' E 130°59'0 0.0
2018-Apr-11 09:00N 33°58' E 130°59'0 0.0
2018-Apr-11 08:30N 33°58' E 130°59'0 0.0
2018-Apr-11 08:00N 33°58' E 130°59'0 0.0
2018-Apr-11 07:30N 33°58' E 130°59'0 0.0
2018-Apr-11 07:00N 33°58' E 130°59'0 0.0
2018-Apr-11 06:30N 33°58' E 130°59'0 0.0
2018-Apr-11 06:00N 33°58' E 130°59'0 0.0
2018-Apr-11 05:30N 33°58' E 130°59'0 0.0
2018-Apr-11 04:54N 33°58' E 130°59'0 0.0
2018-Apr-11 04:30N 33°58' E 130°59'0 0.0
2018-Apr-11 04:00N 33°58' E 130°59'0 0.0
2018-Apr-11 03:30N 33°58' E 130°59'0 0.0
2018-Apr-11 03:00N 33°58' E 130°59'0 0.0
2018-Apr-11 02:30N 33°58' E 130°59'0 0.0
2018-Apr-11 02:00N 33°58' E 130°59'0 0.0
2018-Apr-11 01:30N 33°58' E 130°59'0 0.0
2018-Apr-11 01:00N 33°58' E 130°59'1 1.5
2018-Apr-11 00:31N 33°58' E 130°58'  
Track history (hours):
 
Tides and Currents Weather Stations Pressure Air Temp Water Temp Dewpoint Dewpoint Depression Visibility Wind Speed Wind Dir Waves Ship Positions

MV Boron Navigator

Last reported at 2018-Apr-21 00:22 UTC. Time now 2018-Apr-21 11:42 UTC.
Position N 32°53' E 127°15'.

Length 189.8 m; beam 32.3 m.

Type: Cargo ship. MMSI: 357109000.

Date/timePositionNaut miles runAvg speedWind from/ knotsBaromVisibWave heightAir tempDewpointWater temp
2018-Apr-21 00:22N 32°53' E 127°15'917.4
2018-Apr-20 23:52N 32°57' E 127°24'617.1
2018-Apr-20 23:29N 33°00' E 127°31'2317.3
2018-Apr-20 22:10N 33°10' E 127°55'417.5
2018-Apr-20 21:55N 33°13' E 127°60'817.6
2018-Apr-20 21:27N 33°17' E 128°08'817.1
2018-Apr-20 21:00N 33°21' E 128°16'917.4
2018-Apr-20 20:30N 33°25' E 128°25'917.5
2018-Apr-20 20:00N 33°29' E 128°34'917.2
2018-Apr-20 19:30N 33°33' E 128°44'917.7
2018-Apr-20 19:00N 33°37' E 128°53'917.2
2018-Apr-20 18:29N 33°41' E 129°02'817.3
2018-Apr-20 18:00N 33°45' E 129°11'917.5
2018-Apr-20 17:30N 33°49' E 129°21'917.4
2018-Apr-20 17:00N 33°53' E 129°30'917.3
2018-Apr-20 16:30N 33°56' E 129°40'917.9
2018-Apr-20 16:00N 33°57' E 129°50'918.0
2018-Apr-20 15:30N 33°59' E 130°01'918.3
2018-Apr-20 15:00N 34°00' E 130°12'918.5
2018-Apr-20 14:30N 34°01' E 130°23'918.5
2018-Apr-20 14:00N 34°02' E 130°34'918.1
2018-Apr-20 13:30N 34°03' E 130°45'714.4
2018-Apr-20 13:00N 33°60' E 130°53'4 8.5
2018-Apr-20 12:30N 33°55' E 130°53'3 7.0
2018-Apr-20 12:01N 33°57' E 130°57'2 3.7
2018-Apr-20 11:31N 33°58' E 130°59'0 0.5
2018-Apr-20 11:00N 33°58' E 130°59'0 0.0
2018-Apr-20 10:30N 33°58' E 130°59'0 0.0
2018-Apr-20 10:00N 33°58' E 130°59'0 0.0
2018-Apr-20 09:30N 33°58' E 130°59'0 0.0
2018-Apr-20 09:00N 33°58' E 130°59'0 0.0
2018-Apr-20 08:30N 33°58' E 130°59'0 0.0
2018-Apr-20 08:00N 33°58' E 130°59'0 0.0
2018-Apr-20 07:30N 33°58' E 130°59'0 0.0
2018-Apr-20 07:00N 33°58' E 130°59'0 0.0
2018-Apr-20 06:30N 33°58' E 130°59'0 0.0
2018-Apr-20 06:00N 33°58' E 130°59'0 0.0
2018-Apr-20 05:30N 33°58' E 130°59'0 0.0
2018-Apr-20 05:00N 33°58' E 130°59'0 0.6
2018-Apr-20 04:30N 33°58' E 130°59'4 8.0
2018-Apr-20 04:00N 33°56' E 131°03'2 3.2
2018-Apr-20 03:30N 33°55' E 131°02'0 0.1
2018-Apr-20 03:00N 33°55' E 131°02'0 0.0
2018-Apr-20 02:30N 33°55' E 131°02'0 0.0
2018-Apr-20 02:00N 33°55' E 131°02'0 0.0
2018-Apr-20 01:30N 33°55' E 131°02'0 0.0
2018-Apr-20 01:00N 33°55' E 131°02'0 0.0
2018-Apr-20 00:30N 33°55' E 131°02'0 0.0
2018-Apr-20 00:00N 33°55' E 131°02'0 0.1
2018-Apr-19 23:30N 33°55' E 131°02'4 7.0
2018-Apr-19 23:00N 33°54' E 131°06'714.6
2018-Apr-19 22:30N 33°51' E 131°14'917.1
2018-Apr-19 22:00N 33°50' E 131°25'917.0
2018-Apr-19 21:30N 33°48' E 131°35'816.4
2018-Apr-19 21:01N 33°45' E 131°44'816.6
2018-Apr-19 20:30N 33°38' E 131°49'816.3
2018-Apr-19 20:01N 33°30' E 131°53'816.3
2018-Apr-19 19:30N 33°23' E 131°57'815.0
2018-Apr-19 19:00N 33°16' E 132°01'7113.0
2018-Apr-19 13:33N 32°43' E 133°15'116.2
2018-Apr-19 13:30N 32°43' E 133°16'6611.9
2018-Apr-19 07:57N 32°60' E 134°33'1 1.0
2018-Apr-19 07:24N 32°59' E 134°32'21315.1
2018-Apr-18 17:20N 34°18' E 138°29'816.7
2018-Apr-18 16:51N 34°21' E 138°38'616.5
2018-Apr-18 16:30N 34°23' E 138°45'816.3
2018-Apr-18 15:59N 34°27' E 138°54'815.9
2018-Apr-18 15:30N 34°30' E 139°02'815.8
2018-Apr-18 15:00N 34°34' E 139°11'815.4
2018-Apr-18 14:30N 34°37' E 139°20'916.4
2018-Apr-18 13:59N 34°39' E 139°30'816.3
2018-Apr-18 13:30N 34°46' E 139°34'916.9
2018-Apr-18 13:00N 34°54' E 139°38'917.2
2018-Apr-18 12:30N 35°02' E 139°42'816.8
2018-Apr-18 12:00N 35°10' E 139°45'611.2
2018-Apr-18 11:30N 35°15' E 139°46'612.9
2018-Apr-18 11:01N 35°21' E 139°42'612.8
2018-Apr-18 10:30N 35°26' E 139°46'714.4
2018-Apr-18 10:01N 35°32' E 139°51'510.2
2018-Apr-18 09:30N 35°37' E 139°49'2 3.2
2018-Apr-18 09:00N 35°37' E 139°47'0 0.1
2018-Apr-18 08:15N 35°37' E 139°47'0 0.0
2018-Apr-18 07:03N 35°37' E 139°47'0 0.0
2018-Apr-18 04:15N 35°37' E 139°47'0 0.0
2018-Apr-18 03:57N 35°37' E 139°47'0 0.0
2018-Apr-18 03:27N 35°37' E 139°47'0 0.0
2018-Apr-18 02:27N 35°37' E 139°47'0 0.0
2018-Apr-18 01:51N 35°37' E 139°47'0 0.0
2018-Apr-18 01:09N 35°37' E 139°47'0 0.0
2018-Apr-18 00:39N 35°37' E 139°47'0 0.0
2018-Apr-18 00:30N 35°37' E 139°47'0 0.0
2018-Apr-17 23:57N 35°37' E 139°47'0 0.0
2018-Apr-17 22:39N 35°37' E 139°47'0 0.0
2018-Apr-17 21:42N 35°37' E 139°47'0 0.0
2018-Apr-17 21:21N 35°37' E 139°47'0 0.0
2018-Apr-17 21:00N 35°37' E 139°47'0 0.0
2018-Apr-17 20:30N 35°37' E 139°47'0 0.0
2018-Apr-17 20:00N 35°37' E 139°47'0 0.0
2018-Apr-17 19:12N 35°37' E 139°47'0 0.0
2018-Apr-17 15:15N 35°37' E 139°47'0 0.0
2018-Apr-17 14:51N 35°37' E 139°47'0 0.0
2018-Apr-17 14:15N 35°37' E 139°47'0 0.0
2018-Apr-17 13:57N 35°37' E 139°47'0 0.0
2018-Apr-17 13:21N 35°37' E 139°47'0 0.0
2018-Apr-17 12:57N 35°37' E 139°47'0 0.0
2018-Apr-17 12:27N 35°37' E 139°47'0 0.0
2018-Apr-17 11:57N 35°37' E 139°47'0 0.0
2018-Apr-17 09:15N 35°37' E 139°47'0 0.0
2018-Apr-17 08:51N 35°37' E 139°47'0 0.0
2018-Apr-17 06:21N 35°37' E 139°47'0 0.0
2018-Apr-17 05:57N 35°37' E 139°47'0 0.0
2018-Apr-17 05:27N 35°37' E 139°47'0 0.0
2018-Apr-17 02:51N 35°37' E 139°47'0 0.0
2018-Apr-17 02:27N 35°37' E 139°47'0 0.0
2018-Apr-16 22:57N 35°37' E 139°47'0 0.0
2018-Apr-16 18:15N 35°37' E 139°47'0 0.0
2018-Apr-16 15:03N 35°37' E 139°47'0 0.0
2018-Apr-16 08:48N 35°37' E 139°47'0 0.0
2018-Apr-16 08:21N 35°37' E 139°47'0 0.0
2018-Apr-16 07:51N 35°37' E 139°47'0 0.0
2018-Apr-15 19:15N 35°37' E 139°47'0 0.0
2018-Apr-15 18:51N 35°37' E 139°47'0 0.0
2018-Apr-15 17:45N 35°37' E 139°47'0 0.0
2018-Apr-15 17:27N 35°37' E 139°47'0 0.0
2018-Apr-15 16:15N 35°37' E 139°47'0 0.0
2018-Apr-15 13:51N 35°37' E 139°47'0 0.0
2018-Apr-15 13:27N 35°37' E 139°47'0 0.0
2018-Apr-15 12:57N 35°37' E 139°47'0 0.0
2018-Apr-15 11:45N 35°37' E 139°47'0 0.0
2018-Apr-15 11:21N 35°37' E 139°47'0 0.0
2018-Apr-15 10:57N 35°37' E 139°47'0 0.0
2018-Apr-15 06:18N 35°37' E 139°47'0 0.0
2018-Apr-15 05:45N 35°37' E 139°47'0 0.0
2018-Apr-15 05:30N 35°37' E 139°47'0 0.0
2018-Apr-15 03:21N 35°37' E 139°47'0 0.0
2018-Apr-15 02:51N 35°37' E 139°47'0 0.0
2018-Apr-15 02:30N 35°37' E 139°47'0 0.0
2018-Apr-15 01:12N 35°37' E 139°47'0 0.0
2018-Apr-15 00:39N 35°37' E 139°47'0 0.0
2018-Apr-15 00:27N 35°37' E 139°47'0 0.0
2018-Apr-15 00:00N 35°37' E 139°47'0 0.0
2018-Apr-14 23:09N 35°37' E 139°47'0 0.0
2018-Apr-14 22:45N 35°37' E 139°47'0 0.0
2018-Apr-14 22:24N 35°37' E 139°47'0 0.0
2018-Apr-14 21:54N 35°37' E 139°47'0 0.0
2018-Apr-14 21:24N 35°37' E 139°47'0 0.0
2018-Apr-14 20:30N 35°37' E 139°47'0 0.0
2018-Apr-14 19:57N 35°37' E 139°47'0 0.0
2018-Apr-14 13:39N 35°37' E 139°47'0 0.0
2018-Apr-14 11:57N 35°37' E 139°47'0 0.0
2018-Apr-14 11:27N 35°37' E 139°47'0 0.0
2018-Apr-14 11:00N 35°37' E 139°47'0 0.0
2018-Apr-14 07:21N 35°37' E 139°47'0 0.0
2018-Apr-14 06:51N 35°37' E 139°47'0 0.0
2018-Apr-14 06:30N 35°37' E 139°47'0 0.0
2018-Apr-14 01:57N 35°37' E 139°47'0 0.0
2018-Apr-14 01:09N 35°37' E 139°47'0 0.0
2018-Apr-14 00:54N 35°37' E 139°47'0 0.0
2018-Apr-14 00:24N 35°37' E 139°47'0 0.0
2018-Apr-13 23:21N 35°37' E 139°47'0 0.0
2018-Apr-13 22:57N 35°37' E 139°47'0 0.2
2018-Apr-13 22:30N 35°37' E 139°47'1 2.2
2018-Apr-13 22:00N 35°37' E 139°48'4 7.1
2018-Apr-13 21:30N 35°34' E 139°51'0 0.4
2018-Apr-13 21:00N 35°34' E 139°51'0 0.0
2018-Apr-13 20:30N 35°34' E 139°51'0 0.0
2018-Apr-13 20:00N 35°34' E 139°51'0 0.0
2018-Apr-13 19:30N 35°34' E 139°51'0 0.0
2018-Apr-13 19:00N 35°34' E 139°51'0 0.0
2018-Apr-13 18:27N 35°34' E 139°51'0 0.0
2018-Apr-13 18:00N 35°34' E 139°51'0 0.0
2018-Apr-13 17:30N 35°34' E 139°51'0 0.1
2018-Apr-13 17:00N 35°34' E 139°51'0 0.1
2018-Apr-13 16:30N 35°34' E 139°51'0 0.0
2018-Apr-13 16:00N 35°34' E 139°51'0 0.0
2018-Apr-13 15:30N 35°34' E 139°51'0 0.0
2018-Apr-13 15:00N 35°34' E 139°51'0 0.1
2018-Apr-13 14:30N 35°34' E 139°51'0 0.1
2018-Apr-13 14:00N 35°34' E 139°51'0 0.0
2018-Apr-13 13:30N 35°34' E 139°51'0 0.0
2018-Apr-13 13:00N 35°34' E 139°51'0 0.0
2018-Apr-13 12:30N 35°34' E 139°51'0 0.0
2018-Apr-13 12:00N 35°34' E 139°51'0 0.0
2018-Apr-13 11:30N 35°34' E 139°51'0 0.1
2018-Apr-13 10:57N 35°34' E 139°51'0 0.1
2018-Apr-13 10:30N 35°34' E 139°51'0 0.0
2018-Apr-13 10:00N 35°34' E 139°51'0 0.1
2018-Apr-13 09:30N 35°34' E 139°51'2 3.6
2018-Apr-13 09:00N 35°32' E 139°52'4 8.9
2018-Apr-13 08:31N 35°28' E 139°51'713.1
2018-Apr-13 08:00N 35°23' E 139°46'511.1
2018-Apr-13 07:31N 35°17' E 139°45'611.8
2018-Apr-13 07:00N 35°11' E 139°47'510.6
2018-Apr-13 06:30N 35°06' E 139°45'714.2
2018-Apr-13 06:00N 34°60' E 139°41'816.5
2018-Apr-13 05:30N 34°53' E 139°37'816.0
2018-Apr-13 05:00N 34°45' E 139°33'815.2
2018-Apr-13 04:30N 34°38' E 139°29'917.4
2018-Apr-13 04:01N 34°36' E 139°19'917.3
2018-Apr-13 03:31N 34°32' E 139°09'917.7
2018-Apr-13 03:00N 34°29' E 138°59'1018.5
2018-Apr-13 02:29N 34°25' E 138°49'918.6
2018-Apr-13 01:59N 34°21' E 138°38'3318.7
2018-Apr-13 00:13N 34°08' E 138°02'7417.6
2018-Apr-12 20:02N 33°38' E 136°41'117.2
2018-Apr-12 19:59N 33°38' E 136°40'6418.2
2018-Apr-12 16:28N 33°14' E 135°28'11419.4
2018-Apr-12 10:35N 32°44' E 133°18'219.7
2018-Apr-12 10:30N 32°43' E 133°16'7216.3
2018-Apr-12 06:05N 33°17' E 132°00'219.1
2018-Apr-12 06:00N 33°19' E 131°59'1418.5
2018-Apr-12 05:15N 33°31' E 131°51'519.4
2018-Apr-12 05:00N 33°35' E 131°49'919.1
2018-Apr-12 04:30N 33°44' E 131°44'917.7
2018-Apr-12 04:00N 33°47' E 131°34'918.8
2018-Apr-12 03:30N 33°49' E 131°23'918.8
2018-Apr-12 03:00N 33°51' E 131°12'816.3
2018-Apr-12 02:31N 33°56' E 131°04'4 8.5
2018-Apr-12 02:00N 33°58' E 130°59'0 0.2
2018-Apr-12 01:30N 33°58' E 130°59'0 0.0
2018-Apr-12 01:00N 33°58' E 130°59'0 0.0
2018-Apr-12 00:30N 33°58' E 130°59'0 0.0
2018-Apr-12 00:00N 33°58' E 130°59'0 0.0
2018-Apr-11 23:30N 33°58' E 130°59'0 0.0
2018-Apr-11 23:00N 33°58' E 130°59'0 0.0
2018-Apr-11 22:30N 33°58' E 130°59'0 0.0
2018-Apr-11 22:00N 33°58' E 130°59'0 0.0
2018-Apr-11 21:30N 33°58' E 130°59'0 0.0
2018-Apr-11 21:00N 33°58' E 130°59'0 0.0
2018-Apr-11 20:30N 33°58' E 130°59'0 0.0
2018-Apr-11 20:00N 33°58' E 130°59'0 0.0
2018-Apr-11 19:30N 33°58' E 130°59'0 0.0
2018-Apr-11 19:00N 33°58' E 130°59'0 0.0
2018-Apr-11 18:30N 33°58' E 130°59'0 0.0
2018-Apr-11 18:00N 33°58' E 130°59'0 0.0
2018-Apr-11 17:30N 33°58' E 130°59'0 0.0
2018-Apr-11 17:00N 33°58' E 130°59'0 0.0
2018-Apr-11 16:30N 33°58' E 130°59'0 0.0
2018-Apr-11 16:00N 33°58' E 130°59'0 0.0
2018-Apr-11 15:30N 33°58' E 130°59'0 0.0
2018-Apr-11 15:00N 33°58' E 130°59'0 0.0
2018-Apr-11 14:30N 33°58' E 130°59'0 0.0
2018-Apr-11 14:00N 33°58' E 130°59'0 0.0
2018-Apr-11 13:30N 33°58' E 130°59'0 0.0
2018-Apr-11 13:00N 33°58' E 130°59'0 0.0
2018-Apr-11 12:30N 33°58' E 130°59'0 0.0
2018-Apr-11 12:00N 33°58' E 130°59'0 0.0
2018-Apr-11 11:30N 33°58' E 130°59'0 0.0
2018-Apr-11 11:00N 33°58' E 130°59'0 0.0
2018-Apr-11 10:30N 33°58' E 130°59'0 0.0
2018-Apr-11 10:00N 33°58' E 130°59'0 0.0
2018-Apr-11 09:30N 33°58' E 130°59'0 0.0
2018-Apr-11 09:00N 33°58' E 130°59'0 0.0
2018-Apr-11 08:30N 33°58' E 130°59'0 0.0
2018-Apr-11 08:00N 33°58' E 130°59'0 0.0
2018-Apr-11 07:30N 33°58' E 130°59'0 0.0
2018-Apr-11 07:00N 33°58' E 130°59'0 0.0
2018-Apr-11 06:30N 33°58' E 130°59'0 0.0
2018-Apr-11 06:00N 33°58' E 130°59'0 0.0
2018-Apr-11 05:30N 33°58' E 130°59'0 0.0
2018-Apr-11 04:54N 33°58' E 130°59'0 0.0
2018-Apr-11 04:30N 33°58' E 130°59'0 0.0
2018-Apr-11 04:00N 33°58' E 130°59'0 0.0
2018-Apr-11 03:30N 33°58' E 130°59'0 0.0
2018-Apr-11 03:00N 33°58' E 130°59'0 0.0
2018-Apr-11 02:30N 33°58' E 130°59'0 0.0
2018-Apr-11 02:00N 33°58' E 130°59'0 0.0
2018-Apr-11 01:30N 33°58' E 130°59'0 0.0
2018-Apr-11 01:00N 33°58' E 130°59'1 1.5
2018-Apr-11 00:31N 33°58' E 130°58'  

Dump ship's entire track history